Weather History for KCQX - February, 2014

Change the Weather History Date:

Friday, February 14, 2014

  Actual Average Record
Temperature  
Mean Temperature 40 °F -  
Max Temperature 46 °F 37 °F 57 °F (1990)
Min Temperature 33 °F 24 °F 1 °F (1979)
Degree Days  
Heating Degree Days 26    
Moisture  
Dew Point 35 °F    
Average Humidity 89    
Maximum Humidity 100    
Minimum Humidity 57    
Precipitation  
Precipitation 0.05 in - - ()
Sea Level Pressure  
Sea Level Pressure 29.04 in    
Wind  
Wind Speed 10 mph (SW)    
Max Wind Speed 23 mph    
Max Gust Speed 43 mph    
Visibility 6 miles    
Events Rain , Snow    
Averages and records for this station are not official NWS values.
T = Trace of Precipitation, MM = Missing Value Source: NWS Daily Summary

Daily Weather History Graph

Daily Weather History Graph

Search for Another Location

Airport or City:

Trip Planner

Search our weather history database for the weather conditions in past years. The results will help you decide how hot, cold, wet, or windy it might be!

Date:

Astronomy

Feb. 14, 2014 Rise Set
Actual Time 6:36 AM EST 5:12 PM EST
Civil Twilight 6:08 AM EST 5:40 PM EST
Nautical Twilight 5:35 AM EST 6:13 PM EST
Astronomical Twilight 5:03 AM EST 6:45 PM EST
Moon 5:13 PM EST (2/14) 6:01 AM EST (2/14)
Length of Visible Light 11h 32m
Length of Day
10h 35m
Full, 100% of the Moon is Illuminated
Feb 14
Full
Feb 14
Full
Feb 22
Last Quarter
Mar 1
New
Mar 8
First Quarter

Hourly Weather History & Observations

Time (EST) Temp. Windchill Dew Point Humidity Pressure Visibility Wind Dir Wind Speed Gust Speed Precip Events Conditions
12:00 AM 45.0 °F 41.8 °F 45.0 °F 100% 28.95 in 4.0 mi East 5.8 mph - 0.00 in Rain Light Rain
12:22 AM 46.9 °F - 46.9 °F 100% 28.92 in 1.8 mi SSW 6.9 mph - 0.01 in Rain Light Rain
12:38 AM 45.0 °F 40.1 °F 44.1 °F 97% 28.93 in 3.0 mi SSW 9.2 mph 19.6 mph 0.01 in Rain Light Rain
12:43 AM 45.0 °F 41.2 °F 44.1 °F 97% 28.93 in 9.0 mi Variable 6.9 mph 19.6 mph 0.02 in Rain Light Rain
12:52 AM 45.0 °F 41.8 °F 44.1 °F 97% 28.91 in 6.0 mi SW 5.8 mph - 0.02 in Rain Light Rain
1:00 AM 44.1 °F 40.8 °F 44.1 °F 100% 28.89 in 1.8 mi SW 5.8 mph - 0.00 in Rain Light Rain
1:05 AM 44.1 °F 39.5 °F 43.0 °F 96% 28.91 in 0.8 mi SSW 8.1 mph - 0.00 in   Overcast
1:21 AM 42.1 °F 36.1 °F 41.0 °F 96% 28.92 in 0.8 mi SSW 10.4 mph 19.6 mph 0.00 in   Mist
1:39 AM 42.1 °F 34.2 °F 41.0 °F 96% 28.92 in 1.5 mi SSW 16.1 mph 26.5 mph 0.00 in   Overcast
1:52 AM 41.0 °F 33.9 °F 41.0 °F 100% 28.92 in 2.5 mi SSW 12.7 mph 26.5 mph 0.00 in   Overcast
1:59 AM 42.1 °F 34.5 °F 41.0 °F 96% 28.92 in 4.0 mi SW 15.0 mph 29.9 mph N/A   Overcast
2:31 AM 41.0 °F 34.3 °F 39.9 °F 96% 28.91 in 6.0 mi SW 11.5 mph 23.0 mph N/A   Overcast
2:47 AM 39.2 °F 32.5 °F 39.2 °F 100% 28.90 in 5.0 mi SW 10.4 mph 19.6 mph N/A   Overcast
2:52 AM 39.9 °F 32.5 °F 39.9 °F 100% 28.90 in 5.0 mi SW 12.7 mph 21.9 mph N/A   Overcast
2:58 AM 39.9 °F 33.9 °F 39.9 °F 100% 28.90 in 5.0 mi SW 9.2 mph 21.9 mph N/A   Overcast
3:25 AM 39.9 °F 32.1 °F 39.0 °F 97% 28.89 in 5.0 mi SW 13.8 mph 23.0 mph N/A   Overcast
3:47 AM 39.2 °F 32.0 °F 39.2 °F 100% 28.88 in 6.0 mi SW 11.5 mph 20.7 mph N/A   Overcast
3:52 AM 39.0 °F 32.8 °F 37.9 °F 96% 28.88 in 6.0 mi SW 9.2 mph 19.6 mph N/A   Overcast
4:28 AM 39.0 °F 31.8 °F 37.9 °F 96% 28.86 in 6.0 mi SSW 11.5 mph 19.6 mph N/A   Overcast
4:48 AM 39.2 °F 31.6 °F 37.4 °F 93% 28.85 in 5.0 mi SSW 12.7 mph 21.9 mph N/A   Overcast
4:52 AM 39.0 °F 31.8 °F 37.9 °F 96% 28.86 in 5.0 mi SSW 11.5 mph 21.9 mph N/A   Overcast
5:01 AM 39.0 °F 32.3 °F 37.9 °F 96% 28.85 in 7.0 mi SSW 10.4 mph 23.0 mph N/A   Overcast
5:49 AM 37.4 °F 30.3 °F 35.6 °F 93% 28.82 in 6.0 mi SSW 10.4 mph 26.5 mph 0.02 in Rain Light Rain
5:52 AM 37.0 °F 28.1 °F 36.0 °F 96% 28.82 in 6.0 mi SSW 15.0 mph 26.5 mph 0.02 in Rain Light Rain
5:59 AM 37.0 °F 29.3 °F 36.0 °F 96% 28.81 in 7.0 mi SSW 11.5 mph 24.2 mph 0.00 in Rain Light Rain
6:25 AM 37.0 °F 30.4 °F 36.0 °F 96% 28.79 in 3.0 mi SSW 9.2 mph 17.3 mph 0.00 in   Overcast
6:32 AM 37.0 °F 31.0 °F 36.0 °F 96% 28.79 in 3.0 mi SW 8.1 mph 17.3 mph 0.00 in   Overcast
6:41 AM 37.0 °F 29.3 °F 36.0 °F 96% 28.79 in 2.0 mi SW 11.5 mph 18.4 mph 0.00 in   Overcast
6:52 AM 37.0 °F 29.3 °F 36.0 °F 96% 28.80 in 1.5 mi WSW 11.5 mph 18.4 mph 0.00 in   Overcast
7:38 AM 37.0 °F 28.9 °F 36.0 °F 96% 28.85 in 3.0 mi West 12.7 mph 23.0 mph 0.00 in   Overcast
7:52 AM 35.1 °F 25.9 °F 34.0 °F 96% 28.88 in 4.0 mi West 13.8 mph 26.5 mph 0.00 in   Overcast
8:05 AM 35.1 °F 27.9 °F 33.1 °F 92% 28.89 in 8.0 mi West 9.2 mph 24.2 mph N/A   Overcast
8:27 AM 34.0 °F 25.0 °F 34.0 °F 100% 28.93 in 4.0 mi WSW 12.7 mph 19.6 mph 0.01 in Snow Light Snow
8:40 AM 34.0 °F 26.0 °F 33.1 °F 96% 28.95 in 4.0 mi WSW 10.4 mph 20.7 mph 0.01 in Snow Light Snow
8:48 AM 33.8 °F 25.3 °F 33.8 °F 100% 28.95 in 5.0 mi WSW 11.5 mph 21.9 mph 0.01 in Snow Light Snow
8:52 AM 34.0 °F 24.2 °F 33.1 °F 96% 28.96 in 6.0 mi WSW 15.0 mph 23.0 mph 0.01 in   Overcast
9:12 AM 34.0 °F 24.2 °F 33.1 °F 96% 28.97 in 9.0 mi WSW 15.0 mph 27.6 mph N/A   Overcast
9:23 AM 34.0 °F 24.2 °F 33.1 °F 96% 28.98 in 9.0 mi WSW 15.0 mph 27.6 mph N/A   Overcast
9:52 AM 34.0 °F 26.0 °F 33.1 °F 96% 29.01 in 10.0 mi WSW 10.4 mph 25.3 mph N/A   Overcast
10:30 AM 34.0 °F 25.0 °F 30.0 °F 85% 29.05 in 9.0 mi West 12.7 mph 36.8 mph N/A   Overcast
10:52 AM 33.1 °F 23.4 °F 28.9 °F 85% 29.08 in 9.0 mi WSW 13.8 mph 31.1 mph 0.00 in   Overcast
11:52 AM 35.1 °F 24.5 °F 27.0 °F 72% 29.14 in 10.0 mi WSW 18.4 mph 31.1 mph N/A   Mostly Cloudy
12:21 PM 35.1 °F 23.3 °F 24.1 °F 64% 29.16 in 10.0 mi WSW 23.0 mph 41.4 mph N/A   Mostly Cloudy
12:52 PM 36.0 °F 25.3 °F 25.0 °F 64% 29.21 in 10.0 mi WSW 19.6 mph 34.5 mph N/A   Mostly Cloudy
1:52 PM 37.0 °F 25.9 °F 23.0 °F 57% 29.26 in 10.0 mi West 23.0 mph 40.3 mph N/A   Mostly Cloudy
2:52 PM 37.9 °F 29.2 °F 24.1 °F 57% 29.31 in 10.0 mi West 15.0 mph 42.6 mph N/A   Mostly Cloudy
3:52 PM 37.9 °F 29.2 °F 25.0 °F 60% 29.39 in 10.0 mi West 15.0 mph 29.9 mph N/A   Overcast
4:52 PM 37.9 °F 30.0 °F 26.1 °F 62% 29.45 in 10.0 mi WSW 12.7 mph 27.6 mph N/A   Overcast
5:52 PM 36.0 °F 27.1 °F 28.9 °F 76% 29.51 in 10.0 mi WSW 13.8 mph 24.2 mph N/A   Partly Cloudy
6:52 PM 36.0 °F 29.0 °F 28.9 °F 76% 29.55 in 10.0 mi WSW 9.2 mph 19.6 mph N/A   Clear
7:52 PM 35.1 °F 27.9 °F 28.9 °F 78% 29.60 in 10.0 mi WSW 9.2 mph 17.3 mph N/A   Clear
8:52 PM 36.0 °F 28.5 °F 28.0 °F 73% 29.68 in 10.0 mi WSW 10.4 mph 20.7 mph N/A   Clear
9:52 PM 36.0 °F 28.5 °F 25.0 °F 64% 29.73 in 10.0 mi West 10.4 mph 18.4 mph N/A   Clear
10:52 PM 35.1 °F 27.9 °F 25.0 °F 67% 29.74 in 10.0 mi WSW 9.2 mph 18.4 mph N/A   Clear
11:52 PM 34.0 °F 28.8 °F 24.1 °F 67% 29.77 in 10.0 mi West 5.8 mph - N/A   Clear